createdAt,value
2018-08-04T00:01:44.349Z,26.43
2018-08-04T00:04:13.446Z,26.35
2018-08-04T00:06:42.560Z,26.55
2018-08-04T00:09:13.177Z,26.37
2018-08-04T00:11:42.666Z,26.19
2018-08-04T00:14:12.030Z,26.27
2018-08-04T00:16:41.185Z,26.34
2018-08-04T00:19:10.322Z,26.28
2018-08-04T00:21:39.418Z,26.27
2018-08-04T00:24:08.542Z,26.42
2018-08-04T00:26:37.637Z,26.15
2018-08-04T00:29:06.766Z,26.02
2018-08-04T00:31:35.874Z,26.00
2018-08-04T00:34:05.039Z,25.95
2018-08-04T00:36:34.153Z,26.13
2018-08-04T00:39:03.337Z,26.24
2018-08-04T00:41:32.445Z,26.24
2018-08-04T00:44:01.594Z,26.20
2018-08-04T00:46:30.723Z,26.16
2018-08-04T00:48:59.897Z,25.96
2018-08-04T00:51:29.021Z,25.95
2018-08-04T00:53:58.139Z,25.87
2018-08-04T00:56:27.249Z,25.77
2018-08-04T00:58:56.412Z,25.76
2018-08-04T01:01:25.506Z,25.82
2018-08-04T01:03:54.669Z,25.76
2018-08-04T01:06:23.787Z,25.73
2018-08-04T01:08:52.886Z,25.89
2018-08-04T01:11:21.997Z,25.50
2018-08-04T01:13:51.098Z,25.74
2018-08-04T01:16:20.213Z,25.63
2018-08-04T01:18:49.329Z,25.47
2018-08-04T01:21:18.453Z,25.43
2018-08-04T01:23:47.555Z,25.48
2018-08-04T01:26:16.658Z,25.74
2018-08-04T01:28:45.745Z,25.72
2018-08-04T01:31:14.868Z,25.43
2018-08-04T01:33:43.957Z,25.55
2018-08-04T01:36:13.094Z,25.50
2018-08-04T01:38:42.221Z,25.45
2018-08-04T01:41:11.337Z,25.47
2018-08-04T01:43:40.469Z,25.29
2018-08-04T01:46:09.585Z,25.58
2018-08-04T01:48:38.721Z,25.43
2018-08-04T01:51:07.833Z,25.38
2018-08-04T01:53:36.995Z,25.28
2018-08-04T01:56:06.085Z,25.25
2018-08-04T01:58:35.207Z,25.30
2018-08-04T02:01:04.332Z,25.24
2018-08-04T02:03:33.469Z,25.14
2018-08-04T02:06:02.581Z,25.00
2018-08-04T02:08:31.697Z,24.93
2018-08-04T02:11:00.814Z,25.12
2018-08-04T02:13:29.942Z,25.12
2018-08-04T02:15:59.053Z,25.25
2018-08-04T02:18:28.173Z,24.88
2018-08-04T02:20:57.294Z,24.97
2018-08-04T02:23:26.401Z,24.66
2018-08-04T02:25:55.493Z,24.81
2018-08-04T02:28:24.618Z,24.93
2018-08-04T02:30:53.744Z,25.12
2018-08-04T02:33:22.839Z,25.02
2018-08-04T02:35:51.947Z,25.07
2018-08-04T02:38:21.061Z,25.08
2018-08-04T02:40:50.230Z,24.90
2018-08-04T02:43:19.348Z,25.01
2018-08-04T02:45:48.457Z,24.79
2018-08-04T02:48:17.593Z,24.74
2018-08-04T02:50:46.682Z,24.90
2018-08-04T02:53:15.783Z,24.98
2018-08-04T02:55:44.914Z,24.86
2018-08-04T02:58:14.006Z,24.97
2018-08-04T03:00:43.131Z,24.70
2018-08-04T03:03:12.214Z,24.55
2018-08-04T03:05:41.538Z,24.81
2018-08-04T03:08:10.641Z,24.80
2018-08-04T03:10:39.742Z,24.81
2018-08-04T03:13:08.881Z,24.34
2018-08-04T03:15:38.005Z,24.63
2018-08-04T03:18:07.149Z,24.63
2018-08-04T03:20:36.261Z,24.67
2018-08-04T03:23:05.455Z,24.68
2018-08-04T03:25:34.617Z,24.68
2018-08-04T03:28:03.745Z,24.57
2018-08-04T03:30:32.873Z,24.64
2018-08-04T03:33:02.011Z,24.55
2018-08-04T03:35:31.109Z,24.29
2018-08-04T03:38:00.229Z,24.43
2018-08-04T03:40:29.374Z,24.56
2018-08-04T03:42:58.480Z,24.30
2018-08-04T03:45:27.616Z,24.43
2018-08-04T03:47:56.729Z,24.55
2018-08-04T03:50:25.881Z,24.56
2018-08-04T03:52:54.995Z,24.49
2018-08-04T03:55:24.109Z,24.43
2018-08-04T03:57:53.224Z,24.63
2018-08-04T04:00:22.313Z,24.50
2018-08-04T04:02:51.463Z,24.25
2018-08-04T04:05:20.559Z,24.61
2018-08-04T04:07:49.689Z,24.48
2018-08-04T04:10:18.817Z,24.34
2018-08-04T04:12:47.921Z,24.28
2018-08-04T04:15:17.064Z,24.34
2018-08-04T04:17:47.448Z,24.34
2018-08-04T04:20:18.303Z,24.17
2018-08-04T04:22:47.649Z,24.24
2018-08-04T04:25:16.800Z,24.25
2018-08-04T04:27:45.885Z,24.25
2018-08-04T04:30:15.465Z,24.25
2018-08-04T04:32:44.785Z,24.09
2018-08-04T04:35:13.905Z,24.04
2018-08-04T04:37:43.005Z,24.23
2018-08-04T04:40:12.154Z,24.38
2018-08-04T04:42:41.261Z,24.26
2018-08-04T04:45:10.393Z,24.25
2018-08-04T04:47:39.491Z,24.38
2018-08-04T04:50:08.624Z,24.24
2018-08-04T04:52:37.741Z,24.32
2018-08-04T04:55:06.889Z,24.35
2018-08-04T04:57:36.018Z,24.34
2018-08-04T05:00:05.385Z,24.47
2018-08-04T05:02:34.534Z,24.47
2018-08-04T05:05:03.689Z,24.40
2018-08-04T05:07:32.799Z,24.51
2018-08-04T05:10:01.925Z,24.62
2018-08-04T05:12:31.049Z,24.54
2018-08-04T05:15:00.183Z,24.40
2018-08-04T05:17:29.293Z,24.46
2018-08-04T05:19:58.385Z,24.56
2018-08-04T05:22:27.547Z,24.58
2018-08-04T05:24:57.100Z,24.62
2018-08-04T05:27:26.192Z,24.71
2018-08-04T05:29:55.297Z,24.70
2018-08-04T05:32:24.385Z,24.78
2018-08-04T05:34:53.527Z,24.78
2018-08-04T05:37:22.694Z,24.89
2018-08-04T05:39:51.786Z,24.91
2018-08-04T05:42:20.929Z,24.98
2018-08-04T05:44:50.050Z,25.12
2018-08-04T05:47:19.154Z,25.10
2018-08-04T05:49:48.250Z,25.08
2018-08-04T05:52:17.341Z,25.21
2018-08-04T05:54:46.438Z,25.30
2018-08-04T05:57:15.553Z,25.36
2018-08-04T05:59:44.697Z,25.49
2018-08-04T06:02:13.998Z,25.55
2018-08-04T06:04:43.115Z,25.61
2018-08-04T06:07:12.210Z,25.72
2018-08-04T06:09:41.321Z,25.65
2018-08-04T06:12:10.429Z,25.68
2018-08-04T06:14:39.548Z,25.59
2018-08-04T06:17:08.689Z,25.75
2018-08-04T06:19:37.800Z,25.75
2018-08-04T06:22:06.990Z,25.81
2018-08-04T06:24:36.338Z,25.76
2018-08-04T06:27:05.530Z,25.75
2018-08-04T06:29:35.300Z,25.72
2018-08-04T06:32:12.350Z,25.80
2018-08-04T06:34:48.147Z,25.90
2018-08-04T06:37:17.887Z,25.90
2018-08-04T06:39:50.168Z,25.76
2018-08-04T06:42:19.597Z,26.06
2018-08-04T06:44:50.926Z,25.99
2018-08-04T06:47:20.321Z,26.11
2018-08-04T06:49:49.924Z,25.72
2018-08-04T06:52:19.137Z,26.09
2018-08-04T06:54:48.386Z,26.03
2018-08-04T06:57:17.574Z,26.13
2018-08-04T06:59:47.709Z,26.38
2018-08-04T07:02:16.821Z,26.41
2018-08-04T07:04:45.965Z,26.70
2018-08-04T07:07:15.102Z,26.66
2018-08-04T07:09:44.638Z,26.69
2018-08-04T07:12:13.800Z,26.72
2018-08-04T07:14:42.982Z,26.94
2018-08-04T07:17:12.187Z,27.16
2018-08-04T07:19:41.305Z,27.31
2018-08-04T07:22:10.429Z,27.74
2018-08-04T07:24:39.658Z,27.72
2018-08-04T07:27:08.845Z,27.73
2018-08-04T07:29:37.970Z,27.61
2018-08-04T07:32:07.216Z,27.43
2018-08-04T07:34:36.322Z,27.48
2018-08-04T07:37:05.829Z,27.20
2018-08-04T07:39:35.038Z,27.29
2018-08-04T07:42:04.234Z,27.57
2018-08-04T07:44:33.365Z,27.15
2018-08-04T07:47:02.501Z,27.21
2018-08-04T07:49:31.609Z,27.33
2018-08-04T07:52:00.868Z,27.42
2018-08-04T07:54:30.019Z,27.70
2018-08-04T07:56:59.137Z,28.02
2018-08-04T07:59:28.290Z,28.03
2018-08-04T08:01:57.413Z,27.84
2018-08-04T08:04:26.554Z,27.92
2018-08-04T08:06:55.677Z,27.91
2018-08-04T08:09:24.907Z,28.48
2018-08-04T08:11:54.170Z,28.68
2018-08-04T08:14:23.321Z,28.99
2018-08-04T08:16:52.430Z,29.09
2018-08-04T08:19:21.622Z,28.90
2018-08-04T08:21:50.735Z,29.28
2018-08-04T08:24:20.045Z,29.42
2018-08-04T08:26:49.274Z,29.64
2018-08-04T08:29:18.413Z,29.25
2018-08-04T08:31:47.581Z,28.77
2018-08-04T08:34:17.144Z,28.58
2018-08-04T08:36:48.179Z,28.30
2018-08-04T08:39:17.518Z,28.87
2018-08-04T08:41:46.658Z,28.54
2018-08-04T08:44:15.789Z,28.72
2018-08-04T08:46:44.901Z,29.17
2018-08-04T08:49:14.071Z,28.97
2018-08-04T08:51:43.169Z,29.16
2018-08-04T08:54:12.448Z,29.37
2018-08-04T08:56:41.453Z,29.52
2018-08-04T08:59:10.590Z,30.70
2018-08-04T09:01:39.702Z,30.41
2018-08-04T09:04:09.123Z,31.12
2018-08-04T09:06:38.239Z,31.17
2018-08-04T09:09:09.001Z,30.60
2018-08-04T09:11:38.331Z,31.28
2018-08-04T09:14:07.529Z,31.38
2018-08-04T09:16:36.692Z,31.63
2018-08-04T09:19:05.997Z,32.10
2018-08-04T09:21:35.188Z,32.45
2018-08-04T09:24:04.441Z,32.02
2018-08-04T09:26:33.570Z,32.06
2018-08-04T09:29:02.746Z,32.64
2018-08-04T09:31:31.909Z,32.15
2018-08-04T09:34:01.029Z,32.25
2018-08-04T09:36:30.157Z,32.52
2018-08-04T09:39:00.043Z,32.18
2018-08-04T09:41:29.227Z,32.66
2018-08-04T09:43:58.333Z,32.76
2018-08-04T09:46:27.478Z,33.35
2018-08-04T09:48:56.610Z,32.76
2018-08-04T09:51:25.780Z,33.48
2018-08-04T09:53:54.931Z,32.93
2018-08-04T09:56:24.065Z,34.10
2018-08-04T09:58:53.223Z,34.29
2018-08-04T10:01:27.689Z,33.44
2018-08-04T10:03:56.843Z,33.25
2018-08-04T10:06:25.989Z,33.36
2018-08-04T10:08:55.105Z,33.66
2018-08-04T10:11:24.258Z,33.60
2018-08-04T10:13:53.361Z,34.35
2018-08-04T10:16:22.553Z,33.46
2018-08-04T10:18:51.709Z,33.54
2018-08-04T10:21:20.901Z,34.01
2018-08-04T10:23:50.038Z,33.46
2018-08-04T10:26:19.198Z,34.24
2018-08-04T10:28:48.310Z,34.67
2018-08-04T10:31:17.450Z,34.08
2018-08-04T10:33:46.599Z,34.06
2018-08-04T10:36:15.791Z,33.98
2018-08-04T10:38:44.913Z,33.88
2018-08-04T10:41:14.054Z,34.30
2018-08-04T10:43:43.197Z,33.74
2018-08-04T10:46:12.358Z,33.37
2018-08-04T10:48:41.472Z,33.85
2018-08-04T10:51:10.629Z,33.23
2018-08-04T10:53:39.757Z,33.84
2018-08-04T10:56:08.906Z,33.35
2018-08-04T10:58:38.081Z,33.35
2018-08-04T11:01:07.374Z,33.35
2018-08-04T11:03:36.578Z,33.17
2018-08-04T11:06:05.873Z,33.25
2018-08-04T11:08:35.038Z,32.97
2018-08-04T11:11:04.234Z,33.04
2018-08-04T11:13:33.357Z,33.18
2018-08-04T11:16:02.487Z,33.12
2018-08-04T11:18:31.922Z,33.03
2018-08-04T11:21:01.518Z,33.27
2018-08-04T11:23:32.141Z,33.28
2018-08-04T11:26:01.282Z,33.58
2018-08-04T11:28:30.409Z,33.52
2018-08-04T11:30:59.577Z,33.56
2018-08-04T11:33:28.665Z,34.21
2018-08-04T11:35:57.831Z,34.18
2018-08-04T11:38:26.997Z,34.38
2018-08-04T11:40:56.133Z,34.31
2018-08-04T11:43:25.375Z,34.34
2018-08-04T11:45:54.497Z,34.34
2018-08-04T11:48:23.641Z,33.91
2018-08-04T11:50:52.847Z,34.12
2018-08-04T11:53:22.007Z,34.18
2018-08-04T11:55:51.184Z,33.76
2018-08-04T11:58:20.903Z,33.86
2018-08-04T12:00:50.117Z,33.66
2018-08-04T12:03:19.430Z,34.21
2018-08-04T12:05:48.602Z,34.21
2018-08-04T12:08:17.730Z,34.53
2018-08-04T12:10:46.887Z,34.69
2018-08-04T12:13:16.072Z,34.92
2018-08-04T12:15:45.252Z,34.89
2018-08-04T12:18:14.495Z,35.03
2018-08-04T12:20:43.522Z,35.33
2018-08-04T12:23:12.687Z,34.98
2018-08-04T12:25:41.847Z,35.10
2018-08-04T12:28:11.007Z,35.52
2018-08-04T12:30:40.225Z,35.57
2018-08-04T12:33:09.393Z,35.15
2018-08-04T12:35:38.636Z,35.02
2018-08-04T12:38:07.913Z,35.38
2018-08-04T12:40:37.176Z,35.40
2018-08-04T12:43:06.701Z,35.35
2018-08-04T12:45:36.075Z,35.19
2018-08-04T12:48:05.431Z,35.21
2018-08-04T12:50:34.728Z,34.70
2018-08-04T12:53:04.136Z,34.84
2018-08-04T12:55:33.502Z,35.12
2018-08-04T12:58:02.692Z,34.75
2018-08-04T13:00:31.809Z,34.59
2018-08-04T13:03:00.965Z,34.84
2018-08-04T13:05:30.105Z,34.84
2018-08-04T13:07:59.313Z,35.01
2018-08-04T13:10:28.521Z,34.88
2018-08-04T13:12:57.674Z,35.06
2018-08-04T13:15:26.838Z,35.46
2018-08-04T13:17:56.124Z,35.11
2018-08-04T13:20:25.481Z,34.74
2018-08-04T13:22:55.710Z,35.25
2018-08-04T13:25:25.006Z,35.03
2018-08-04T13:27:54.671Z,35.02
2018-08-04T13:30:24.136Z,34.77
2018-08-04T13:32:53.381Z,34.45
2018-08-04T13:35:22.753Z,35.13
2018-08-04T13:37:51.923Z,34.68
2018-08-04T13:40:21.352Z,34.45
2018-08-04T13:42:50.600Z,34.88
2018-08-04T13:45:19.779Z,34.93
2018-08-04T13:47:48.965Z,34.96
2018-08-04T13:50:18.446Z,35.35
2018-08-04T13:52:48.380Z,35.11
2018-08-04T13:55:17.617Z,35.09
2018-08-04T13:57:47.105Z,35.15
2018-08-04T14:00:16.651Z,35.41
2018-08-04T14:02:47.723Z,35.14
2018-08-04T14:05:18.822Z,35.01
2018-08-04T14:07:48.090Z,34.99
2018-08-04T14:10:18.084Z,34.87
2018-08-04T14:12:47.334Z,34.90
2018-08-04T14:15:16.860Z,35.10
2018-08-04T14:17:46.692Z,34.98
2018-08-04T14:20:17.077Z,35.29
2018-08-04T14:22:46.324Z,35.54
2018-08-04T14:25:15.585Z,35.30
2018-08-04T14:27:44.908Z,35.09
2018-08-04T14:30:14.066Z,35.15
2018-08-04T14:32:43.184Z,35.07
2018-08-04T14:35:12.359Z,35.13
2018-08-04T14:37:41.505Z,35.26
2018-08-04T14:40:10.695Z,35.07
2018-08-04T14:42:39.853Z,35.22
2018-08-04T14:45:08.982Z,35.32
2018-08-04T14:47:38.145Z,35.15
2018-08-04T14:50:07.650Z,35.22
2018-08-04T14:52:37.028Z,34.67
2018-08-04T14:55:06.673Z,34.41
2018-08-04T14:57:35.854Z,34.52
2018-08-04T15:00:05.469Z,34.51
2018-08-04T15:02:34.666Z,34.51
2018-08-04T15:05:03.898Z,34.76
2018-08-04T15:07:33.125Z,34.58
2018-08-04T15:10:02.349Z,34.42
2018-08-04T15:12:31.483Z,34.60
2018-08-04T15:15:00.648Z,34.68
2018-08-04T15:17:29.813Z,34.75
2018-08-04T15:19:59.021Z,34.63
2018-08-04T15:22:28.147Z,34.64
2018-08-04T15:24:57.469Z,34.57
2018-08-04T15:27:26.690Z,34.62
2018-08-04T15:29:55.822Z,34.64
2018-08-04T15:32:24.933Z,34.49
2018-08-04T15:34:54.050Z,34.53
2018-08-04T15:37:23.198Z,34.47
2018-08-04T15:39:53.409Z,34.60
2018-08-04T15:42:22.545Z,34.40
2018-08-04T15:44:51.690Z,34.30
2018-08-04T15:47:20.850Z,34.38
2018-08-04T15:49:50.116Z,34.47
2018-08-04T15:52:19.278Z,34.30
2018-08-04T15:54:48.411Z,34.12
2018-08-04T15:57:17.525Z,34.12
2018-08-04T15:59:46.848Z,34.11
2018-08-04T16:02:16.030Z,34.02
2018-08-04T16:04:45.248Z,33.98
2018-08-04T16:07:14.521Z,34.11
2018-08-04T16:09:43.725Z,34.17
2018-08-04T16:12:12.921Z,34.13
2018-08-04T16:14:42.084Z,33.94
2018-08-04T16:17:11.248Z,33.92
2018-08-04T16:19:40.577Z,33.94
2018-08-04T16:22:09.903Z,33.86
2018-08-04T16:24:39.702Z,33.63
2018-08-04T16:27:09.097Z,33.58
2018-08-04T16:29:38.506Z,33.58
2018-08-04T16:32:07.862Z,33.58
2018-08-04T16:34:37.247Z,33.29
2018-08-04T16:37:06.741Z,33.37
2018-08-04T16:39:36.388Z,33.37
2018-08-04T16:42:05.848Z,33.32
2018-08-04T16:44:35.474Z,33.40
2018-08-04T16:47:05.196Z,33.36
2018-08-04T16:49:35.378Z,33.27
2018-08-04T16:52:05.029Z,33.50
2018-08-04T16:54:35.340Z,33.28
2018-08-04T16:57:05.776Z,33.30
2018-08-04T16:59:36.192Z,33.38
2018-08-04T17:02:06.177Z,33.08
2018-08-04T17:04:38.560Z,32.93
2018-08-04T17:07:08.567Z,33.08
2018-08-04T17:09:38.597Z,33.23
2018-08-04T17:12:08.211Z,33.18
2018-08-04T17:14:37.605Z,33.07
2018-08-04T17:17:07.633Z,32.95
2018-08-04T17:19:38.136Z,32.96
2018-08-04T17:22:08.002Z,32.81
2018-08-04T17:24:37.387Z,32.73
2018-08-04T17:27:07.216Z,32.57
2018-08-04T17:29:37.119Z,32.65
2018-08-04T17:32:07.956Z,32.46
2018-08-04T17:34:37.252Z,32.30
2018-08-04T17:37:07.070Z,32.35
2018-08-04T17:39:36.344Z,32.35
2018-08-04T17:42:05.838Z,32.29
2018-08-04T17:44:35.131Z,32.39
2018-08-04T17:47:04.373Z,32.43
2018-08-04T17:49:33.605Z,32.14
2018-08-04T17:52:02.944Z,32.07
2018-08-04T17:54:32.228Z,32.02
2018-08-04T17:57:01.387Z,32.03
2018-08-04T17:59:30.490Z,31.96
2018-08-04T18:02:00.001Z,31.95
2018-08-04T18:04:29.111Z,31.77
2018-08-04T18:06:58.286Z,31.79
2018-08-04T18:09:27.393Z,31.68
2018-08-04T18:11:56.529Z,31.63
2018-08-04T18:14:25.634Z,31.61
2018-08-04T18:16:54.797Z,31.46
2018-08-04T18:19:23.897Z,31.43
2018-08-04T18:21:53.091Z,31.33
2018-08-04T18:24:22.246Z,31.33
2018-08-04T18:26:51.498Z,31.28
2018-08-04T18:29:20.639Z,31.19
2018-08-04T18:31:50.833Z,31.10
2018-08-04T18:34:20.011Z,31.12
2018-08-04T18:36:49.181Z,30.97
2018-08-04T18:39:18.303Z,31.06
2018-08-04T18:41:47.466Z,31.02
2018-08-04T18:44:16.626Z,30.97
2018-08-04T18:46:45.803Z,30.99
2018-08-04T18:49:15.003Z,30.94
2018-08-04T18:51:44.219Z,30.80
2018-08-04T18:54:13.402Z,30.71
2018-08-04T18:56:42.657Z,30.70
2018-08-04T18:59:11.937Z,30.64
2018-08-04T19:01:41.107Z,30.63
2018-08-04T19:04:10.234Z,30.59
2018-08-04T19:06:39.440Z,30.46
2018-08-04T19:09:09.725Z,30.54
2018-08-04T19:11:38.867Z,30.48
2018-08-04T19:14:08.504Z,30.47
2018-08-04T19:16:37.641Z,30.42
2018-08-04T19:19:06.841Z,30.40
2018-08-04T19:21:35.960Z,30.30
2018-08-04T19:24:05.098Z,30.30
2018-08-04T19:26:34.258Z,30.32
2018-08-04T19:29:03.442Z,30.24
2018-08-04T19:31:32.569Z,30.35
2018-08-04T19:34:01.713Z,30.16
2018-08-04T19:36:30.857Z,30.07
2018-08-04T19:39:00.018Z,30.01
2018-08-04T19:41:29.145Z,29.93
2018-08-04T19:43:58.327Z,29.83
2018-08-04T19:46:27.403Z,29.78
2018-08-04T19:48:56.521Z,29.70
2018-08-04T19:51:25.658Z,29.67
2018-08-04T19:53:54.790Z,29.68
2018-08-04T19:56:23.910Z,29.59
2018-08-04T19:58:53.201Z,29.52
2018-08-04T20:01:22.406Z,29.49
2018-08-04T20:03:51.547Z,29.45
2018-08-04T20:06:20.657Z,29.38
2018-08-04T20:08:55.450Z,29.39
2018-08-04T20:11:24.595Z,29.21
2018-08-04T20:13:53.710Z,29.27
2018-08-04T20:16:22.841Z,29.24
2018-08-04T20:18:52.378Z,29.18
2018-08-04T20:21:21.530Z,29.03
2018-08-04T20:23:50.646Z,29.04
2018-08-04T20:26:19.801Z,28.90
2018-08-04T20:28:48.953Z,28.83
2018-08-04T20:31:18.217Z,28.68
2018-08-04T20:33:47.322Z,28.64
2018-08-04T20:36:16.482Z,28.60
2018-08-04T20:38:45.739Z,28.54
2018-08-04T20:41:14.938Z,28.46
2018-08-04T20:43:47.501Z,28.44
2018-08-04T20:46:16.697Z,28.29
2018-08-04T20:48:45.893Z,28.29
2018-08-04T20:51:15.124Z,28.34
2018-08-04T20:53:44.307Z,28.26
2018-08-04T20:56:13.553Z,28.28
2018-08-04T20:58:42.781Z,28.25
2018-08-04T21:01:23.036Z,28.21
2018-08-04T21:03:52.178Z,28.00
2018-08-04T21:06:21.311Z,27.92
2018-08-04T21:08:50.448Z,27.85
2018-08-04T21:11:24.935Z,27.86
2018-08-04T21:13:54.061Z,27.80
2018-08-04T21:16:23.210Z,27.83
2018-08-04T21:18:52.507Z,27.78
2018-08-04T21:21:21.623Z,27.76
2018-08-04T21:23:50.738Z,27.76
2018-08-04T21:26:19.987Z,27.82
2018-08-04T21:28:49.111Z,27.82
2018-08-04T21:31:18.265Z,27.80
2018-08-04T21:33:47.435Z,27.70
2018-08-04T21:36:16.595Z,27.54
2018-08-04T21:38:45.769Z,27.52
2018-08-04T21:41:14.998Z,27.41
2018-08-04T21:43:44.128Z,27.47
2018-08-04T21:46:13.322Z,27.42
2018-08-04T21:48:42.526Z,27.21
2018-08-04T21:51:11.727Z,27.21
2018-08-04T21:53:40.843Z,27.18
2018-08-04T21:56:09.988Z,27.16
2018-08-04T21:58:39.117Z,27.09
2018-08-04T22:01:12.309Z,27.03
2018-08-04T22:03:42.678Z,26.97
2018-08-04T22:06:12.136Z,27.01
2018-08-04T22:08:52.495Z,26.89
2018-08-04T22:11:21.710Z,26.71
2018-08-04T22:13:50.809Z,26.80
2018-08-04T22:16:19.965Z,26.80
2018-08-04T22:18:49.114Z,26.80
2018-08-04T22:21:18.238Z,26.80
2018-08-04T22:23:47.562Z,26.69
2018-08-04T22:26:17.118Z,26.61
2018-08-04T22:28:47.301Z,26.60
2018-08-04T22:31:16.422Z,26.63
2018-08-04T22:33:45.586Z,26.50
2018-08-04T22:36:14.703Z,26.53
2018-08-04T22:38:43.855Z,26.46
2018-08-04T22:41:13.067Z,26.53
2018-08-04T22:43:42.147Z,26.49
2018-08-04T22:46:14.737Z,26.52
2018-08-04T22:48:46.106Z,26.53
2018-08-04T22:51:19.490Z,26.40
2018-08-04T22:53:48.847Z,26.33
2018-08-04T22:56:17.977Z,26.26
2018-08-04T22:58:47.105Z,26.17
2018-08-04T23:01:16.289Z,26.19
2018-08-04T23:06:14.551Z,26.41
2018-08-04T23:08:43.687Z,26.41
2018-08-04T23:11:12.805Z,26.15
2018-08-04T23:13:41.946Z,26.22
2018-08-04T23:16:11.079Z,26.19
2018-08-04T23:18:40.218Z,25.96
2018-08-04T23:21:09.743Z,26.08
2018-08-04T23:23:39.047Z,26.08
2018-08-04T23:26:08.177Z,26.10
2018-08-04T23:28:37.293Z,26.06
2018-08-04T23:31:07.465Z,25.66
2018-08-04T23:33:36.625Z,25.77
2018-08-04T23:36:05.733Z,25.87
2018-08-04T23:38:34.849Z,25.70
2018-08-04T23:41:05.010Z,25.72
2018-08-04T23:43:34.153Z,25.70
2018-08-04T23:46:03.307Z,25.69
2018-08-04T23:48:32.408Z,25.56
2018-08-04T23:51:01.525Z,25.43
2018-08-04T23:53:30.621Z,25.27
2018-08-04T23:55:59.810Z,25.26
2018-08-04T23:58:28.965Z,25.37
